sensor_id;sensor_type;location;lat;lon;timestamp;pressure;altitude;pressure_sealevel;temperature;humidity
43115;BME280;28727;50.068;14.452;2023-01-16T00:02:29;98291.50;;;4.67;60.79
43115;BME280;28727;50.068;14.452;2023-01-16T00:05:01;98288.06;;;4.58;61.00
43115;BME280;28727;50.068;14.452;2023-01-16T00:07:32;98281.34;;;4.56;61.12
43115;BME280;28727;50.068;14.452;2023-01-16T00:10:05;98288.06;;;4.58;61.23
43115;BME280;28727;50.068;14.452;2023-01-16T00:12:37;98287.38;;;4.56;61.05
43115;BME280;28727;50.068;14.452;2023-01-16T00:15:09;98289.84;;;4.58;61.55
43115;BME280;28727;50.068;14.452;2023-01-16T00:17:41;98279.06;;;4.61;61.07
43115;BME280;28727;50.068;14.452;2023-01-16T00:20:16;98285.13;;;4.61;61.58
43115;BME280;28727;50.068;14.452;2023-01-16T00:22:55;98284.78;;;4.56;61.89
43115;BME280;28727;50.068;14.452;2023-01-16T00:25:27;98279.88;;;4.53;61.57
43115;BME280;28727;50.068;14.452;2023-01-16T00:27:59;98279.69;;;4.54;61.64
43115;BME280;28727;50.068;14.452;2023-01-16T00:30:32;98282.00;;;4.58;61.33
43115;BME280;28727;50.068;14.452;2023-01-16T00:33:04;98282.00;;;4.58;61.90
43115;BME280;28727;50.068;14.452;2023-01-16T00:35:36;98275.47;;;4.62;61.77
43115;BME280;28727;50.068;14.452;2023-01-16T00:38:08;98264.88;;;4.63;61.60
43115;BME280;28727;50.068;14.452;2023-01-16T00:40:40;98268.44;;;4.62;60.99
43115;BME280;28727;50.068;14.452;2023-01-16T00:43:12;98264.53;;;4.66;60.88
43115;BME280;28727;50.068;14.452;2023-01-16T00:45:44;98259.00;;;4.69;60.99
43115;BME280;28727;50.068;14.452;2023-01-16T00:48:17;98250.50;;;4.67;61.02
43115;BME280;28727;50.068;14.452;2023-01-16T00:50:49;98248.84;;;4.66;61.10
43115;BME280;28727;50.068;14.452;2023-01-16T00:53:21;98249.19;;;4.63;60.94
43115;BME280;28727;50.068;14.452;2023-01-16T00:55:52;98244.25;;;4.60;61.39
43115;BME280;28727;50.068;14.452;2023-01-16T00:58:24;98246.84;;;4.60;61.18
43115;BME280;28727;50.068;14.452;2023-01-16T01:00:56;98262.56;;;4.60;61.22
43115;BME280;28727;50.068;14.452;2023-01-16T01:03:28;98260.75;;;4.61;61.48
43115;BME280;28727;50.068;14.452;2023-01-16T01:06:05;98261.25;;;4.56;61.20
43115;BME280;28727;50.068;14.452;2023-01-16T01:08:37;98256.47;;;4.51;61.10
43115;BME280;28727;50.068;14.452;2023-01-16T01:11:14;98252.56;;;4.47;61.18
43115;BME280;28727;50.068;14.452;2023-01-16T01:13:46;98255.63;;;4.43;61.74
43115;BME280;28727;50.068;14.452;2023-01-16T01:16:18;98253.63;;;4.37;61.88
43115;BME280;28727;50.068;14.452;2023-01-16T01:18:50;98253.97;;;4.34;61.61
43115;BME280;28727;50.068;14.452;2023-01-16T01:21:22;98259.34;;;4.32;62.06
43115;BME280;28727;50.068;14.452;2023-01-16T01:23:55;98248.72;;;4.34;62.25
43115;BME280;28727;50.068;14.452;2023-01-16T01:26:27;98252.81;;;4.36;62.20
43115;BME280;28727;50.068;14.452;2023-01-16T01:28:59;98252.81;;;4.36;62.12
43115;BME280;28727;50.068;14.452;2023-01-16T01:31:30;98250.19;;;4.36;61.82
43115;BME280;28727;50.068;14.452;2023-01-16T01:34:07;98243.16;;;4.37;62.02
43115;BME280;28727;50.068;14.452;2023-01-16T01:36:39;98258.84;;;4.37;61.98
43115;BME280;28727;50.068;14.452;2023-01-16T01:39:11;98255.28;;;4.38;61.45
43115;BME280;28727;50.068;14.452;2023-01-16T01:41:43;98254.31;;;4.39;61.61
43115;BME280;28727;50.068;14.452;2023-01-16T01:47:36;98238.94;;;4.36;61.65
43115;BME280;28727;50.068;14.452;2023-01-16T01:53:18;98228.63;;;4.34;61.57
43115;BME280;28727;50.068;14.452;2023-01-16T01:55:52;98233.03;;;4.34;61.94
43115;BME280;28727;50.068;14.452;2023-01-16T01:58:35;98233.19;;;4.32;61.91
43115;BME280;28727;50.068;14.452;2023-01-16T02:01:17;98231.56;;;4.31;62.25
43115;BME280;28727;50.068;14.452;2023-01-16T02:03:57;98236.97;;;4.30;61.84
43115;BME280;28727;50.068;14.452;2023-01-16T02:07:00;98227.28;;;4.30;62.16
43115;BME280;28727;50.068;14.452;2023-01-16T02:09:33;98219.63;;;4.29;61.83
43115;BME280;28727;50.068;14.452;2023-01-16T02:12:10;98215.38;;;4.28;62.19
43115;BME280;28727;50.068;14.452;2023-01-16T02:14:46;98213.59;;;4.28;61.81
43115;BME280;28727;50.068;14.452;2023-01-16T02:17:19;98212.09;;;4.26;62.16
43115;BME280;28727;50.068;14.452;2023-01-16T02:20:15;98206.22;;;4.24;62.12
43115;BME280;28727;50.068;14.452;2023-01-16T02:23:21;98196.06;;;4.21;62.14
43115;BME280;28727;50.068;14.452;2023-01-16T02:42:45;98161.06;;;4.13;61.88
43115;BME280;28727;50.068;14.452;2023-01-16T02:51:03;98143.59;;;4.14;61.97
43115;BME280;28727;50.068;14.452;2023-01-16T02:56:17;98131.06;;;4.18;61.92
43115;BME280;28727;50.068;14.452;2023-01-16T02:58:53;98134.31;;;4.11;61.14
43115;BME280;28727;50.068;14.452;2023-01-16T03:01:28;98129.56;;;4.15;61.33
43115;BME280;28727;50.068;14.452;2023-01-16T03:06:46;98113.03;;;4.06;61.62
43115;BME280;28727;50.068;14.452;2023-01-16T03:15:13;98110.59;;;4.05;61.05
43115;BME280;28727;50.068;14.452;2023-01-16T03:23:55;98107.16;;;4.04;61.45
43115;BME280;28727;50.068;14.452;2023-01-16T03:26:46;98097.84;;;4.02;60.84
43115;BME280;28727;50.068;14.452;2023-01-16T03:32:30;98096.09;;;4.10;60.94
43115;BME280;28727;50.068;14.452;2023-01-16T03:35:09;98088.09;;;4.12;60.86
43115;BME280;28727;50.068;14.452;2023-01-16T03:37:54;98089.22;;;4.09;60.82
43115;BME280;28727;50.068;14.452;2023-01-16T03:40:31;98088.41;;;4.09;60.42
43115;BME280;28727;50.068;14.452;2023-01-16T03:43:25;98086.25;;;4.04;60.66
43115;BME280;28727;50.068;14.452;2023-01-16T03:51:26;98066.00;;;4.06;60.89
43115;BME280;28727;50.068;14.452;2023-01-16T03:56:42;98063.72;;;4.03;61.04
43115;BME280;28727;50.068;14.452;2023-01-16T03:59:15;98055.72;;;4.05;60.74
43115;BME280;28727;50.068;14.452;2023-01-16T04:01:55;98054.75;;;4.06;60.57
43115;BME280;28727;50.068;14.452;2023-01-16T04:04:33;98057.38;;;4.06;60.96
43115;BME280;28727;50.068;14.452;2023-01-16T04:10:17;98050.31;;;4.06;60.64
43115;BME280;28727;50.068;14.452;2023-01-16T04:12:53;98038.91;;;4.07;60.21
43115;BME280;28727;50.068;14.452;2023-01-16T04:15:28;98038.91;;;4.07;60.24
43115;BME280;28727;50.068;14.452;2023-01-16T04:18:02;98041.34;;;4.01;60.11
43115;BME280;28727;50.068;14.452;2023-01-16T04:20:35;98036.94;;;4.01;59.90
43115;BME280;28727;50.068;14.452;2023-01-16T04:23:09;98036.44;;;3.98;59.81
43115;BME280;28727;50.068;14.452;2023-01-16T04:25:42;98027.31;;;3.94;60.33
43115;BME280;28727;50.068;14.452;2023-01-16T04:28:21;98019.63;;;3.92;60.59
43115;BME280;28727;50.068;14.452;2023-01-16T04:30:53;98018.66;;;3.93;60.31
43115;BME280;28727;50.068;14.452;2023-01-16T04:33:24;98013.41;;;3.93;60.55
43115;BME280;28727;50.068;14.452;2023-01-16T04:35:56;98010.63;;;3.95;60.58
43115;BME280;28727;50.068;14.452;2023-01-16T04:38:28;98009.84;;;3.94;60.26
43115;BME280;28727;50.068;14.452;2023-01-16T04:40:59;97993.16;;;3.95;60.11
43115;BME280;28727;50.068;14.452;2023-01-16T04:43:35;97983.38;;;3.97;60.10
43115;BME280;28727;50.068;14.452;2023-01-16T04:46:06;97981.59;;;3.98;59.60
43115;BME280;28727;50.068;14.452;2023-01-16T04:48:41;97983.38;;;3.97;59.78
43115;BME280;28727;50.068;14.452;2023-01-16T04:51:13;97981.75;;;3.96;59.68
43115;BME280;28727;50.068;14.452;2023-01-16T04:53:45;97984.34;;;3.96;60.02
43115;BME280;28727;50.068;14.452;2023-01-16T04:56:16;97984.03;;;3.91;59.50
43115;BME280;28727;50.068;14.452;2023-01-16T04:58:48;97976.16;;;3.83;60.16
43115;BME280;28727;50.068;14.452;2023-01-16T05:01:24;97968.50;;;3.82;60.17
43115;BME280;28727;50.068;14.452;2023-01-16T05:03:57;97958.38;;;3.79;60.36
43115;BME280;28727;50.068;14.452;2023-01-16T05:06:32;97963.44;;;3.80;60.18
43115;BME280;28727;50.068;14.452;2023-01-16T05:09:05;97959.69;;;3.83;60.30
43115;BME280;28727;50.068;14.452;2023-01-16T05:11:37;97957.25;;;3.81;60.01
43115;BME280;28727;50.068;14.452;2023-01-16T05:14:20;97952.84;;;3.82;60.40
43115;BME280;28727;50.068;14.452;2023-01-16T05:16:52;97958.22;;;3.80;60.49
43115;BME280;28727;50.068;14.452;2023-01-16T05:19:26;97944.19;;;3.81;60.00
43115;BME280;28727;50.068;14.452;2023-01-16T05:21:58;97941.72;;;3.80;60.43
43115;BME280;28727;50.068;14.452;2023-01-16T05:24:30;97938.81;;;3.83;59.84
43115;BME280;28727;50.068;14.452;2023-01-16T05:27:02;97933.72;;;3.81;59.68
43115;BME280;28727;50.068;14.452;2023-01-16T05:29:34;97922.31;;;3.82;60.16
43115;BME280;28727;50.068;14.452;2023-01-16T05:32:05;97936.34;;;3.89;60.47
43115;BME280;28727;50.068;14.452;2023-01-16T05:34:42;97928.03;;;3.86;60.21
43115;BME280;28727;50.068;14.452;2023-01-16T05:37:14;97921.81;;;3.87;59.88
43115;BME280;28727;50.068;14.452;2023-01-16T05:39:49;97916.09;;;3.91;59.96
43115;BME280;28727;50.068;14.452;2023-01-16T05:42:21;97913.84;;;3.88;59.60
43115;BME280;28727;50.068;14.452;2023-01-16T05:44:53;97915.97;;;3.93;59.73
43115;BME280;28727;50.068;14.452;2023-01-16T05:47:28;97902.06;;;3.92;60.25
43115;BME280;28727;50.068;14.452;2023-01-16T05:50:00;97910.56;;;3.94;60.08
43115;BME280;28727;50.068;14.452;2023-01-16T05:52:32;97902.06;;;3.92;59.69
43115;BME280;28727;50.068;14.452;2023-01-16T05:55:05;97893.25;;;3.93;59.67
43115;BME280;28727;50.068;14.452;2023-01-16T05:57:38;97899.63;;;3.91;60.04
43115;BME280;28727;50.068;14.452;2023-01-16T06:00:10;97895.72;;;3.87;59.46
43115;BME280;28727;50.068;14.452;2023-01-16T06:02:44;97898.97;;;3.89;59.57
43115;BME280;28727;50.068;14.452;2023-01-16T06:05:19;97893.91;;;3.87;59.88
43115;BME280;28727;50.068;14.452;2023-01-16T06:07:54;97892.28;;;3.86;59.68
43115;BME280;28727;50.068;14.452;2023-01-16T06:10:30;97878.75;;;3.83;59.41
43115;BME280;28727;50.068;14.452;2023-01-16T06:13:05;97875.31;;;3.82;60.03
43115;BME280;28727;50.068;14.452;2023-01-16T06:15:37;97864.34;;;3.79;60.21
43115;BME280;28727;50.068;14.452;2023-01-16T06:18:12;97849.84;;;3.76;59.53
43115;BME280;28727;50.068;14.452;2023-01-16T06:20:46;97842.97;;;3.75;60.42
43115;BME280;28727;50.068;14.452;2023-01-16T06:23:17;97836.78;;;3.76;59.89
43115;BME280;28727;50.068;14.452;2023-01-16T06:25:49;97840.03;;;3.78;60.34
43115;BME280;28727;50.068;14.452;2023-01-16T06:28:21;97821.75;;;3.78;59.62
43115;BME280;28727;50.068;14.452;2023-01-16T06:30:53;97818.31;;;3.78;59.78
43115;BME280;28727;50.068;14.452;2023-01-16T06:33:28;97803.81;;;3.75;60.33
43115;BME280;28727;50.068;14.452;2023-01-16T06:35:59;97806.25;;;3.68;60.13
43115;BME280;28727;50.068;14.452;2023-01-16T06:38:34;97796.31;;;3.64;60.25
43115;BME280;28727;50.068;14.452;2023-01-16T06:41:10;97797.13;;;3.64;60.39
43115;BME280;28727;50.068;14.452;2023-01-16T06:43:42;97790.75;;;3.67;59.59
43115;BME280;28727;50.068;14.452;2023-01-16T06:46:14;97790.91;;;3.65;60.01
43115;BME280;28727;50.068;14.452;2023-01-16T06:48:48;97778.03;;;3.56;60.65
43115;BME280;28727;50.068;14.452;2023-01-16T06:51:20;97783.22;;;3.48;60.43
43115;BME280;28727;50.068;14.452;2023-01-16T06:53:52;97782.75;;;3.44;60.48
43115;BME280;28727;50.068;14.452;2023-01-16T06:56:25;97784.56;;;3.44;61.27
43115;BME280;28727;50.068;14.452;2023-01-16T06:58:57;97780.97;;;3.45;60.84
43115;BME280;28727;50.068;14.452;2023-01-16T07:01:29;97776.41;;;3.47;61.10
43115;BME280;28727;50.068;14.452;2023-01-16T07:04:02;97771.84;;;3.41;61.00
43115;BME280;28727;50.068;14.452;2023-01-16T07:06:35;97776.72;;;3.44;60.72
43115;BME280;28727;50.068;14.452;2023-01-16T07:09:11;97769.41;;;3.47;60.40
43115;BME280;28727;50.068;14.452;2023-01-16T07:11:42;97766.28;;;3.52;60.89
43115;BME280;28727;50.068;14.452;2023-01-16T07:14:15;97760.72;;;3.55;61.03
43115;BME280;28727;50.068;14.452;2023-01-16T07:17:06;97762.72;;;3.53;60.72
43115;BME280;28727;50.068;14.452;2023-01-16T07:19:59;97767.75;;;3.54;60.70
43115;BME280;28727;50.068;14.452;2023-01-16T07:22:50;97751.78;;;3.57;60.72
43115;BME280;28727;50.068;14.452;2023-01-16T07:25:32;97753.72;;;3.63;60.84
43115;BME280;28727;50.068;14.452;2023-01-16T07:28:05;97756.00;;;3.66;60.34
43115;BME280;28727;50.068;14.452;2023-01-16T07:30:38;97751.94;;;3.64;60.07
43115;BME280;28727;50.068;14.452;2023-01-16T07:33:10;97743.91;;;3.65;60.14
43115;BME280;28727;50.068;14.452;2023-01-16T07:35:42;97746.22;;;3.68;60.38
43115;BME280;28727;50.068;14.452;2023-01-16T07:38:18;97744.13;;;4.27;59.77
43115;BME280;28727;50.068;14.452;2023-01-16T07:40:50;97737.31;;;4.88;58.22
43115;BME280;28727;50.068;14.452;2023-01-16T07:43:22;97740.34;;;5.45;56.85
43115;BME280;28727;50.068;14.452;2023-01-16T07:45:54;97730.78;;;6.99;51.93
43115;BME280;28727;50.068;14.452;2023-01-16T07:48:28;97706.56;;;8.71;50.61
43115;BME280;28727;50.068;14.452;2023-01-16T07:51:00;97699.72;;;10.47;45.82
43115;BME280;28727;50.068;14.452;2023-01-16T07:53:33;97684.88;;;11.78;42.26
43115;BME280;28727;50.068;14.452;2023-01-16T07:56:07;97675.84;;;12.95;39.32
43115;BME280;28727;50.068;14.452;2023-01-16T07:58:42;97676.50;;;14.09;36.65
43115;BME280;28727;50.068;14.452;2023-01-16T08:01:17;97673.69;;;15.35;35.23
43115;BME280;28727;50.068;14.452;2023-01-16T08:03:52;97659.34;;;16.63;32.77
43115;BME280;28727;50.068;14.452;2023-01-16T08:06:25;97649.16;;;17.63;30.97
43115;BME280;28727;50.068;14.452;2023-01-16T08:08:57;97650.28;;;18.61;29.57
43115;BME280;28727;50.068;14.452;2023-01-16T08:11:31;97645.13;;;19.47;27.13
43115;BME280;28727;50.068;14.452;2023-01-16T08:14:19;97645.88;;;20.13;26.99
43115;BME280;28727;50.068;14.452;2023-01-16T08:16:52;97631.16;;;20.85;25.80
43115;BME280;28727;50.068;14.452;2023-01-16T08:19:26;97620.28;;;21.05;24.49
43115;BME280;28727;50.068;14.452;2023-01-16T08:21:58;97609.91;;;20.89;24.59
43115;BME280;28727;50.068;14.452;2023-01-16T08:24:30;97605.69;;;21.55;24.26
43115;BME280;28727;50.068;14.452;2023-01-16T08:27:02;97601.63;;;22.16;23.58
43115;BME280;28727;50.068;14.452;2023-01-16T08:29:38;97594.44;;;22.77;23.10
43115;BME280;28727;50.068;14.452;2023-01-16T08:32:10;97591.84;;;23.75;22.35
43115;BME280;28727;50.068;14.452;2023-01-16T08:34:42;97581.34;;;24.19;20.94
43115;BME280;28727;50.068;14.452;2023-01-16T08:37:17;97567.22;;;24.36;20.06
43115;BME280;28727;50.068;14.452;2023-01-16T08:39:50;97558.38;;;24.58;19.93
43115;BME280;28727;50.068;14.452;2023-01-16T08:42:21;97548.16;;;24.68;19.88
43115;BME280;28727;50.068;14.452;2023-01-16T08:45:13;97543.91;;;24.54;19.77
43115;BME280;28727;50.068;14.452;2023-01-16T08:48:03;97533.94;;;23.99;19.96
43115;BME280;28727;50.068;14.452;2023-01-16T08:50:57;97544.69;;;23.86;20.20
43115;BME280;28727;50.068;14.452;2023-01-16T08:53:48;97538.44;;;24.31;20.72
43115;BME280;28727;50.068;14.452;2023-01-16T08:56:22;97516.94;;;24.40;20.96
43115;BME280;28727;50.068;14.452;2023-01-16T08:58:54;97505.06;;;24.63;19.94
43115;BME280;28727;50.068;14.452;2023-01-16T09:01:26;97500.22;;;25.32;19.64
43115;BME280;28727;50.068;14.452;2023-01-16T09:04:01;97488.81;;;24.77;19.06
43115;BME280;28727;50.068;14.452;2023-01-16T09:06:35;97493.72;;;24.39;19.69
43115;BME280;28727;50.068;14.452;2023-01-16T09:09:10;97479.38;;;24.30;19.99
43115;BME280;28727;50.068;14.452;2023-01-16T09:11:53;97476.97;;;24.01;19.73
43115;BME280;28727;50.068;14.452;2023-01-16T09:14:43;97475.69;;;24.26;20.13
43115;BME280;28727;50.068;14.452;2023-01-16T09:17:15;97468.03;;;24.41;19.88
43115;BME280;28727;50.068;14.452;2023-01-16T09:19:47;97461.25;;;24.17;19.68
43115;BME280;28727;50.068;14.452;2023-01-16T09:22:19;97462.28;;;23.52;20.33
43115;BME280;28727;50.068;14.452;2023-01-16T09:24:50;97450.13;;;23.96;20.16
43115;BME280;28727;50.068;14.452;2023-01-16T09:27:22;97448.97;;;24.82;19.36
43115;BME280;28727;50.068;14.452;2023-01-16T09:29:56;97446.38;;;25.22;19.05
43115;BME280;28727;50.068;14.452;2023-01-16T09:32:28;97443.31;;;25.68;18.62
43115;BME280;28727;50.068;14.452;2023-01-16T09:34:59;97441.41;;;25.46;18.81
43115;BME280;28727;50.068;14.452;2023-01-16T09:37:31;97435.09;;;25.99;18.25
43115;BME280;28727;50.068;14.452;2023-01-16T09:40:11;97428.91;;;26.16;18.11
43115;BME280;28727;50.068;14.452;2023-01-16T09:45:56;97409.00;;;27.15;16.84
43115;BME280;28727;50.068;14.452;2023-01-16T09:48:36;97407.69;;;27.21;16.46
43115;BME280;28727;50.068;14.452;2023-01-16T09:51:18;97396.84;;;27.21;16.64
43115;BME280;28727;50.068;14.452;2023-01-16T09:54:19;97386.47;;;27.61;15.99
43115;BME280;28727;50.068;14.452;2023-01-16T09:57:16;97389.00;;;27.66;16.26
43115;BME280;28727;50.068;14.452;2023-01-16T10:00:15;97379.53;;;26.96;16.64
43115;BME280;28727;50.068;14.452;2023-01-16T10:02:48;97382.06;;;26.93;16.99
43115;BME280;28727;50.068;14.452;2023-01-16T10:05:22;97372.88;;;26.59;16.25
43115;BME280;28727;50.068;14.452;2023-01-16T10:13:43;97348.41;;;25.56;17.50
43115;BME280;28727;50.068;14.452;2023-01-16T10:16:42;97336.03;;;25.63;17.46
43115;BME280;28727;50.068;14.452;2023-01-16T10:27:17;97308.56;;;25.96;17.12
43115;BME280;28727;50.068;14.452;2023-01-16T10:30:01;97305.19;;;26.16;17.06
43115;BME280;28727;50.068;14.452;2023-01-16T10:32:49;97297.91;;;26.25;16.85
43115;BME280;28727;50.068;14.452;2023-01-16T10:35:37;97294.84;;;25.66;17.17
43115;BME280;28727;50.068;14.452;2023-01-16T10:38:36;97290.06;;;25.15;17.43
43115;BME280;28727;50.068;14.452;2023-01-16T10:44:37;97291.75;;;22.65;19.33
43115;BME280;28727;50.068;14.452;2023-01-16T10:47:33;97288.41;;;21.89;20.28
43115;BME280;28727;50.068;14.452;2023-01-16T10:50:27;97278.38;;;21.15;21.33
43115;BME280;28727;50.068;14.452;2023-01-16T10:53:10;97265.13;;;19.35;22.79
43115;BME280;28727;50.068;14.452;2023-01-16T10:55:44;97271.13;;;19.17;23.29
43115;BME280;28727;50.068;14.452;2023-01-16T10:58:29;97264.38;;;18.55;23.90
43115;BME280;28727;50.068;14.452;2023-01-16T11:01:05;97249.44;;;17.98;24.67
43115;BME280;28727;50.068;14.452;2023-01-16T11:03:40;97260.06;;;17.48;25.25
43115;BME280;28727;50.068;14.452;2023-01-16T11:06:15;97254.44;;;16.72;25.83
43115;BME280;28727;50.068;14.452;2023-01-16T11:08:55;97255.03;;;16.37;26.70
43115;BME280;28727;50.068;14.452;2023-01-16T11:11:36;97243.84;;;15.66;27.56
43115;BME280;28727;50.068;14.452;2023-01-16T11:14:36;97232.09;;;15.67;27.70
43115;BME280;28727;50.068;14.452;2023-01-16T11:17:31;97228.75;;;15.77;27.66
43115;BME280;28727;50.068;14.452;2023-01-16T11:20:32;97219.69;;;15.51;27.68
43115;BME280;28727;50.068;14.452;2023-01-16T11:25:45;97203.56;;;15.57;28.33
43115;BME280;28727;50.068;14.452;2023-01-16T11:28:22;97182.69;;;15.49;27.78
43115;BME280;28727;50.068;14.452;2023-01-16T11:31:01;97194.28;;;14.41;28.50
43115;BME280;28727;50.068;14.452;2023-01-16T11:33:41;97191.03;;;14.01;29.18
43115;BME280;28727;50.068;14.452;2023-01-16T11:36:17;97188.25;;;13.57;29.67
43115;BME280;28727;50.068;14.452;2023-01-16T11:38:52;97205.16;;;13.23;29.94
43115;BME280;28727;50.068;14.452;2023-01-16T11:41:45;97169.53;;;12.90;30.91
43115;BME280;28727;50.068;14.452;2023-01-16T11:44:23;97156.59;;;12.77;31.12
43115;BME280;28727;50.068;14.452;2023-01-16T11:47:21;97142.84;;;12.80;31.13
43115;BME280;28727;50.068;14.452;2023-01-16T11:49:54;97131.09;;;12.59;31.44
43115;BME280;28727;50.068;14.452;2023-01-16T11:52:25;97128.09;;;12.56;31.61
43115;BME280;28727;50.068;14.452;2023-01-16T11:55:02;97113.69;;;12.63;31.54
43115;BME280;28727;50.068;14.452;2023-01-16T11:57:46;97096.94;;;12.75;31.51
43115;BME280;28727;50.068;14.452;2023-01-16T12:12:46;97048.34;;;13.31;30.22
43115;BME280;28727;50.068;14.452;2023-01-16T12:15:37;97031.84;;;13.45;30.44
43115;BME280;28727;50.068;14.452;2023-01-16T12:21:38;97018.41;;;13.02;30.79
43115;BME280;28727;50.068;14.452;2023-01-16T12:27:29;96985.19;;;13.11;31.31
43115;BME280;28727;50.068;14.452;2023-01-16T12:37:04;96964.88;;;13.00;30.16
43115;BME280;28727;50.068;14.452;2023-01-16T12:40:31;96952.09;;;12.97;30.17
43115;BME280;28727;50.068;14.452;2023-01-16T12:46:13;96932.38;;;12.88;30.47
43115;BME280;28727;50.068;14.452;2023-01-16T13:00:23;96900.41;;;12.11;30.21
43115;BME280;28727;50.068;14.452;2023-01-16T13:05:39;96903.44;;;11.74;30.96
43115;BME280;28727;50.068;14.452;2023-01-16T13:10:56;96882.53;;;11.21;31.96
43115;BME280;28727;50.068;14.452;2023-01-16T13:13:54;96881.31;;;11.12;32.29
43115;BME280;28727;50.068;14.452;2023-01-16T13:17:10;96882.47;;;10.93;32.83
43115;BME280;28727;50.068;14.452;2023-01-16T13:20:01;96867.09;;;10.78;33.36
43115;BME280;28727;50.068;14.452;2023-01-16T13:22:43;96869.19;;;10.76;33.84
43115;BME280;28727;50.068;14.452;2023-01-16T13:30:39;96864.09;;;10.16;33.72
43115;BME280;28727;50.068;14.452;2023-01-16T13:33:17;96861.75;;;10.08;34.09
43115;BME280;28727;50.068;14.452;2023-01-16T13:42:00;96844.91;;;9.68;35.09
43115;BME280;28727;50.068;14.452;2023-01-16T13:44:38;96843.22;;;9.43;35.67
43115;BME280;28727;50.068;14.452;2023-01-16T13:47:39;96830.84;;;9.44;35.93
43115;BME280;28727;50.068;14.452;2023-01-16T13:50:22;96827.16;;;9.33;36.67
43115;BME280;28727;50.068;14.452;2023-01-16T13:53:07;96826.88;;;9.23;36.69
43115;BME280;28727;50.068;14.452;2023-01-16T13:55:40;96818.91;;;9.12;36.66
43115;BME280;28727;50.068;14.452;2023-01-16T13:58:18;96817.84;;;9.01;37.57
43115;BME280;28727;50.068;14.452;2023-01-16T14:01:02;96822.06;;;9.02;37.23
43115;BME280;28727;50.068;14.452;2023-01-16T14:03:36;96814.63;;;8.99;37.15
43115;BME280;28727;50.068;14.452;2023-01-16T14:08:50;96803.88;;;8.82;38.38
43115;BME280;28727;50.068;14.452;2023-01-16T14:12:40;96804.09;;;8.62;38.35
43115;BME280;28727;50.068;14.452;2023-01-16T14:14:51;96790.66;;;8.52;38.55
43115;BME280;28727;50.068;14.452;2023-01-16T14:18:01;96792.34;;;8.47;38.93
43115;BME280;28727;50.068;14.452;2023-01-16T14:20:51;96797.13;;;8.32;39.91
43115;BME280;28727;50.068;14.452;2023-01-16T14:23:37;96795.78;;;8.22;40.91
43115;BME280;28727;50.068;14.452;2023-01-16T14:26:49;96801.09;;;8.16;40.72
43115;BME280;28727;50.068;14.452;2023-01-16T14:29:26;96790.09;;;8.01;42.18
43115;BME280;28727;50.068;14.452;2023-01-16T14:32:02;96780.66;;;7.93;41.81
43115;BME280;28727;50.068;14.452;2023-01-16T14:34:39;96778.03;;;7.93;42.11
43115;BME280;28727;50.068;14.452;2023-01-16T14:43:09;96777.72;;;7.83;43.18
43115;BME280;28727;50.068;14.452;2023-01-16T14:49:38;96778.03;;;7.68;43.70
43115;BME280;28727;50.068;14.452;2023-01-16T14:55:51;96796.38;;;7.44;45.50
43115;BME280;28727;50.068;14.452;2023-01-16T15:01:32;96778.03;;;7.37;45.57
43115;BME280;28727;50.068;14.452;2023-01-16T15:04:28;96777.09;;;7.25;45.61
43115;BME280;28727;50.068;14.452;2023-01-16T15:07:04;96776.09;;;7.19;46.26
43115;BME280;28727;50.068;14.452;2023-01-16T15:09:38;96774.94;;;7.15;46.84
43115;BME280;28727;50.068;14.452;2023-01-16T15:12:13;96770.94;;;7.13;47.28
43115;BME280;28727;50.068;14.452;2023-01-16T15:14:57;96769.34;;;7.05;48.03
43115;BME280;28727;50.068;14.452;2023-01-16T15:17:42;96758.44;;;7.02;47.06
43115;BME280;28727;50.068;14.452;2023-01-16T15:20:32;96753.25;;;6.95;47.67
43115;BME280;28727;50.068;14.452;2023-01-16T15:23:35;96758.09;;;6.91;47.91
43115;BME280;28727;50.068;14.452;2023-01-16T15:32:13;96769.72;;;6.64;49.86
43115;BME280;28727;50.068;14.452;2023-01-16T15:37:51;96750.00;;;6.48;50.65
43115;BME280;28727;50.068;14.452;2023-01-16T15:40:48;96750.84;;;6.36;50.77
43115;BME280;28727;50.068;14.452;2023-01-16T15:43:47;96744.81;;;6.29;51.07
43115;BME280;28727;50.068;14.452;2023-01-16T15:53:13;96715.63;;;6.12;51.75
43115;BME280;28727;50.068;14.452;2023-01-16T15:56:04;96709.97;;;6.15;51.57
43115;BME280;28727;50.068;14.452;2023-01-16T15:59:32;96709.00;;;6.03;52.20
43115;BME280;28727;50.068;14.452;2023-01-16T16:02:19;96704.19;;;5.93;52.92
43115;BME280;28727;50.068;14.452;2023-01-16T16:08:23;96687.84;;;5.78;53.35
43115;BME280;28727;50.068;14.452;2023-01-16T16:11:19;96672.94;;;5.72;54.32
43115;BME280;28727;50.068;14.452;2023-01-16T16:14:41;96662.69;;;5.64;54.10
43115;BME280;28727;50.068;14.452;2023-01-16T16:17:37;96679.03;;;5.59;54.05
43115;BME280;28727;50.068;14.452;2023-01-16T16:20:49;96661.69;;;5.52;54.41
43115;BME280;28727;50.068;14.452;2023-01-16T16:23:40;96680.84;;;5.46;54.21
43115;BME280;28727;50.068;14.452;2023-01-16T16:26:26;96671.38;;;5.45;54.21
43115;BME280;28727;50.068;14.452;2023-01-16T16:29:14;96671.97;;;5.40;54.54
43115;BME280;28727;50.068;14.452;2023-01-16T16:32:01;96679.22;;;5.38;54.77
43115;BME280;28727;50.068;14.452;2023-01-16T16:34:38;96682.03;;;5.36;54.81
43115;BME280;28727;50.068;14.452;2023-01-16T16:37:33;96689.88;;;5.36;54.53
43115;BME280;28727;50.068;14.452;2023-01-16T16:40:15;96685.06;;;5.33;54.96
43115;BME280;28727;50.068;14.452;2023-01-16T16:42:57;96683.66;;;5.31;54.99
43115;BME280;28727;50.068;14.452;2023-01-16T16:45:36;96688.69;;;5.26;55.52
43115;BME280;28727;50.068;14.452;2023-01-16T16:48:37;96685.88;;;5.27;55.14
43115;BME280;28727;50.068;14.452;2023-01-16T16:51:29;96693.91;;;5.26;55.44
43115;BME280;28727;50.068;14.452;2023-01-16T16:54:13;96689.91;;;5.23;55.07
43115;BME280;28727;50.068;14.452;2023-01-16T16:57:18;96697.13;;;5.15;55.68
43115;BME280;28727;50.068;14.452;2023-01-16T17:00:22;96691.91;;;5.15;55.70